Time;durP1;ratioP1;P1;durP2;ratioP2;P2;SDS_P1;SDS_P2;PMS_P1;PMS_P2;Temp;Humidity;BMP_temperature;BMP_pressure;BME280_temperature;BME280_humidity;BME280_pressure;Samples;Min_cycle;Max_cycle;Signal;HPM_P1;HPM_P2
2021/07/10 00:00:07;;;;;;;10.77;9.87;;;16.70;99.90;;;;;;5013095;28;20176;-66
2021/07/10 00:02:33;;;;;;;11.90;10.80;;;16.60;99.90;;;;;;5014172;28;20677;-66
2021/07/10 00:04:58;;;;;;;10.73;9.97;;;16.50;99.90;;;;;;5012902;28;20198;-66
2021/07/10 00:07:24;;;;;;;11.00;10.00;;;16.40;99.90;;;;;;5018026;28;20233;-65
2021/07/10 00:09:49;;;;;;;11.10;10.13;;;16.40;99.90;;;;;;5032785;28;20251;-65
2021/07/10 00:12:15;;;;;;;10.70;9.90;;;16.30;99.90;;;;;;5028311;28;20184;-65
2021/07/10 00:14:41;;;;;;;11.83;10.93;;;16.30;99.90;;;;;;5012789;28;20198;-66
2021/07/10 00:17:06;;;;;;;12.13;11.13;;;16.10;99.90;;;;;;5014519;28;20263;-65
2021/07/10 00:19:32;;;;;;;11.33;10.27;;;16.10;99.90;;;;;;5032411;28;20203;-65
2021/07/10 00:21:58;;;;;;;12.63;11.60;;;16.00;99.90;;;;;;5031579;28;20176;-65
2021/07/10 00:24:23;;;;;;;11.50;10.37;;;15.90;99.90;;;;;;5012635;28;20192;-65
2021/07/10 00:26:49;;;;;;;12.20;11.07;;;15.90;99.90;;;;;;5012437;28;20529;-65
2021/07/10 00:29:16;;;;;;;13.00;11.80;;;15.80;99.90;;;;;;5030811;28;20187;-65
2021/07/10 00:31:42;;;;;;;12.83;11.53;;;15.80;99.90;;;;;;5028632;28;20207;-65
2021/07/10 00:34:07;;;;;;;12.07;11.00;;;15.80;99.90;;;;;;5030859;28;20227;-65
2021/07/10 00:36:33;;;;;;;12.00;10.90;;;15.70;99.90;;;;;;5020873;28;20270;-65
2021/07/10 00:38:59;;;;;;;12.90;11.80;;;15.60;99.90;;;;;;5012574;28;20179;-65
2021/07/10 00:41:25;;;;;;;13.00;11.93;;;15.60;99.90;;;;;;5021737;28;20198;-65
2021/07/10 00:43:51;;;;;;;12.30;11.20;;;15.60;99.90;;;;;;5031965;28;20222;-65
2021/07/10 00:46:21;;;;;;;12.90;11.70;;;15.60;99.90;;;;;;5024287;28;20172;-65
2021/07/10 00:48:48;;;;;;;12.53;11.33;;;15.60;99.90;;;;;;5012104;28;20191;-65
2021/07/10 00:51:15;;;;;;;12.73;11.43;;;15.60;99.90;;;;;;5017576;28;20266;-65
2021/07/10 00:53:41;;;;;;;12.23;11.23;;;15.60;99.90;;;;;;5030071;28;20192;-65
2021/07/10 00:56:06;;;;;;;11.93;10.93;;;15.60;99.90;;;;;;5030004;28;20225;-65
2021/07/10 00:58:33;;;;;;;12.67;11.57;;;15.50;99.90;;;;;;5031865;28;20546;-65
2021/07/10 01:01:00;;;;;;;12.53;11.47;;;15.60;99.90;;;;;;5027856;28;20176;-65
2021/07/10 01:03:27;;;;;;;12.83;11.73;;;15.50;99.90;;;;;;5011982;28;20231;-65
2021/07/10 01:05:52;;;;;;;13.63;12.20;;;15.40;99.90;;;;;;5013899;28;20505;-65
2021/07/10 01:08:18;;;;;;;14.93;13.37;;;15.40;99.90;;;;;;5031713;28;20171;-65
2021/07/10 01:10:45;;;;;;;12.23;11.23;;;15.30;99.90;;;;;;5028469;28;20225;-65
2021/07/10 01:13:11;;;;;;;13.27;12.07;;;15.30;99.90;;;;;;5012192;28;20186;-65
2021/07/10 01:15:37;;;;;;;13.17;11.87;;;15.30;99.90;;;;;;5013130;28;20195;-65
2021/07/10 01:18:02;;;;;;;13.07;11.87;;;15.20;99.90;;;;;;5030101;28;20230;-65
2021/07/10 01:20:28;;;;;;;14.33;12.87;;;15.20;99.90;;;;;;5029066;28;20175;-65
2021/07/10 01:22:56;;;;;;;14.93;13.43;;;15.20;99.90;;;;;;5011928;28;20238;-65
2021/07/10 01:25:23;;;;;;;13.03;11.83;;;15.20;99.90;;;;;;5011777;28;20184;-65
2021/07/10 01:27:54;;;;;;;13.83;12.63;;;15.30;99.90;;;;;;5028196;28;20206;-65
2021/07/10 01:30:21;;;;;;;13.13;12.03;;;15.30;99.90;;;;;;5031623;28;20164;-65
2021/07/10 01:32:49;;;;;;;12.37;11.27;;;15.30;99.90;;;;;;5029860;28;20183;-65
2021/07/10 01:35:15;;;;;;;13.87;12.60;;;15.30;99.90;;;;;;5030334;28;20218;-65
2021/07/10 01:37:42;;;;;;;12.23;11.13;;;15.30;99.90;;;;;;5014283;28;20218;-65
2021/07/10 01:40:22;;;;;;;14.00;12.63;;;15.30;99.90;;;;;;5011855;28;20642;-65
2021/07/10 01:42:48;;;;;;;13.03;11.77;;;15.20;99.90;;;;;;5028098;28;20684;-65
2021/07/10 01:45:17;;;;;;;13.63;12.23;;;15.20;99.90;;;;;;5031320;28;20253;-65
2021/07/10 01:47:43;;;;;;;12.67;11.57;;;15.20;99.90;;;;;;5015660;28;20645;-65
2021/07/10 01:50:10;;;;;;;14.07;12.77;;;15.20;99.90;;;;;;5011644;28;20179;-66
2021/07/10 01:52:36;;;;;;;12.90;11.70;;;15.20;99.90;;;;;;5024709;28;20175;-65
2021/07/10 01:55:05;;;;;;;13.03;11.73;;;15.20;99.90;;;;;;5030756;28;20191;-65
2021/07/10 01:57:31;;;;;;;12.43;11.33;;;15.20;99.90;;;;;;5018254;28;20668;-65
2021/07/10 01:59:57;;;;;;;12.87;11.77;;;15.10;99.90;;;;;;5011758;28;20176;-65
2021/07/10 02:02:23;;;;;;;13.40;12.30;;;15.10;99.90;;;;;;5022412;28;20562;-65
2021/07/10 02:04:51;;;;;;;13.60;11.93;;;15.00;99.90;;;;;;5031628;28;20184;-65
2021/07/10 02:07:17;;;;;;;16.13;12.13;;;15.00;99.90;;;;;;5032946;28;20206;-70
2021/07/10 02:09:43;;;;;;;13.80;12.50;;;15.00;99.90;;;;;;5036271;28;20195;-68
2021/07/10 02:12:10;;;;;;;14.40;12.90;;;14.90;99.90;;;;;;5027838;28;20685;-68
2021/07/10 02:14:36;;;;;;;14.47;12.97;;;14.90;99.90;;;;;;5015923;28;20243;-71
2021/07/10 02:17:03;;;;;;;15.20;13.70;;;14.80;99.90;;;;;;5021474;28;20179;-71
2021/07/10 02:19:29;;;;;;;15.50;13.90;;;14.80;99.90;;;;;;5035375;28;20585;-72
2021/07/10 02:21:55;;;;;;;14.47;12.97;;;14.80;99.90;;;;;;5030113;28;20176;-72
2021/07/10 02:24:20;;;;;;;15.63;14.00;;;14.80;99.90;;;;;;5015373;28;20212;-70
2021/07/10 02:26:46;;;;;;;14.60;13.20;;;14.80;99.90;;;;;;5018347;28;20585;-69
2021/07/10 02:29:12;;;;;;;14.57;13.07;;;14.70;99.90;;;;;;5035173;28;20199;-68
2021/07/10 02:31:37;;;;;;;17.53;13.80;;;14.70;99.90;;;;;;5019014;28;20183;-71
2021/07/10 02:34:04;;;;;;;16.13;14.23;;;14.70;99.90;;;;;;5015299;28;20196;-71
2021/07/10 02:36:30;;;;;;;15.20;13.53;;;14.60;99.90;;;;;;5029406;28;20183;-72
2021/07/10 02:38:56;;;;;;;15.73;13.90;;;14.60;99.90;;;;;;5022179;28;20188;-71
2021/07/10 02:41:22;;;;;;;15.13;13.53;;;14.60;99.90;;;;;;5015051;28;20180;-71
2021/07/10 02:43:47;;;;;;;15.97;14.27;;;14.60;99.90;;;;;;5024851;28;20211;-71
2021/07/10 02:46:13;;;;;;;15.90;14.30;;;14.50;99.90;;;;;;5034707;28;20179;-70
2021/07/10 02:48:38;;;;;;;14.87;13.57;;;14.50;99.90;;;;;;5025383;28;20674;-68
2021/07/10 02:51:04;;;;;;;15.47;13.97;;;14.40;99.90;;;;;;5014806;28;20638;-69
2021/07/10 02:53:30;;;;;;;15.67;13.40;;;14.50;99.90;;;;;;5019524;28;20191;-70
2021/07/10 02:55:55;;;;;;;17.23;14.87;;;14.50;99.90;;;;;;5034567;28;20194;-70
2021/07/10 02:58:21;;;;;;;16.23;14.17;;;14.40;99.90;;;;;;5028796;28;20187;-69
2021/07/10 03:00:47;;;;;;;16.10;14.60;;;14.40;99.90;;;;;;5014836;28;20216;-69
2021/07/10 03:03:12;;;;;;;17.83;12.80;;;14.50;99.90;;;;;;5018902;28;20209;-68
2021/07/10 03:05:38;;;;;;;15.00;13.50;;;14.40;99.90;;;;;;5034316;28;20278;-70
2021/07/10 03:08:05;;;;;;;14.13;12.83;;;14.40;99.90;;;;;;5033221;28;20188;-70
2021/07/10 03:10:31;;;;;;;14.73;13.33;;;14.30;99.90;;;;;;5035133;28;20199;-68
2021/07/10 03:12:59;;;;;;;15.60;14.10;;;14.40;99.90;;;;;;5033656;28;20226;-71
2021/07/10 03:15:26;;;;;;;16.90;15.20;;;14.30;99.90;;;;;;5014415;28;20605;-69
2021/07/10 03:17:52;;;;;;;15.07;13.60;;;14.30;99.90;;;;;;5015012;28;20186;-68
2021/07/10 03:20:20;;;;;;;15.53;13.90;;;14.40;99.90;;;;;;5033970;28;20229;-73
2021/07/10 03:22:47;;;;;;;18.43;14.13;;;14.30;99.90;;;;;;5034760;28;20195;-69
2021/07/10 03:25:13;;;;;;;15.20;13.60;;;14.30;99.90;;;;;;5016321;28;20204;-70
2021/07/10 03:27:40;;;;;;;17.20;13.70;;;14.20;99.90;;;;;;5014619;28;20176;-69
2021/07/10 03:30:08;;;;;;;17.53;14.40;;;14.20;99.90;;;;;;5031367;28;20183;-69
2021/07/10 03:32:33;;;;;;;18.33;14.77;;;14.20;99.90;;;;;;5035079;28;20179;-69
2021/07/10 03:34:59;;;;;;;16.40;14.77;;;14.10;99.90;;;;;;5019357;28;20211;-72
2021/07/10 03:37:25;;;;;;;17.80;14.07;;;14.10;99.90;;;;;;5014347;28;20176;-69
2021/07/10 03:39:50;;;;;;;16.83;15.10;;;14.20;99.90;;;;;;5027558;28;20183;-69
2021/07/10 03:42:16;;;;;;;16.53;14.63;;;14.30;99.90;;;;;;5034259;28;20227;-70
2021/07/10 03:44:42;;;;;;;17.83;16.00;;;14.30;99.90;;;;;;5023105;28;20211;-66
2021/07/10 03:47:07;;;;;;;15.90;14.20;;;14.30;99.90;;;;;;5013167;28;20176;-66
2021/07/10 03:49:33;;;;;;;16.07;14.43;;;14.30;99.90;;;;;;5022511;28;20203;-66
2021/07/10 03:51:59;;;;;;;17.03;15.33;;;14.40;99.90;;;;;;5015116;28;20187;-66
2021/07/10 03:54:24;;;;;;;17.87;15.70;;;14.40;99.90;;;;;;5020592;28;20210;-66
2021/07/10 03:56:50;;;;;;;16.17;14.43;;;14.50;99.90;;;;;;5032938;28;20167;-66
2021/07/10 03:59:16;;;;;;;16.30;14.60;;;14.50;99.90;;;;;;5027220;28;20539;-66
2021/07/10 04:01:45;;;;;;;16.60;14.90;;;14.50;99.90;;;;;;5013217;28;20173;-66
2021/07/10 04:04:12;;;;;;;18.07;15.10;;;14.50;99.90;;;;;;5016983;28;20218;-66
2021/07/10 04:06:37;;;;;;;17.47;15.83;;;14.50;99.90;;;;;;5031540;28;20183;-66
2021/07/10 04:09:03;;;;;;;17.03;15.07;;;14.70;99.90;;;;;;5029997;28;20592;-66
2021/07/10 04:11:29;;;;;;;17.67;15.73;;;14.70;99.90;;;;;;5013066;28;20176;-66
2021/07/10 04:13:55;;;;;;;20.80;15.43;;;14.80;99.90;;;;;;5013489;28;20246;-66
2021/07/10 04:16:20;;;;;;;24.13;16.27;;;14.90;99.90;;;;;;5032524;28;20183;-66
2021/07/10 04:18:46;;;;;;;19.13;17.07;;;15.00;99.90;;;;;;5032729;28;20172;-66
2021/07/10 04:21:11;;;;;;;19.57;17.17;;;15.10;99.90;;;;;;5013672;28;20188;-66
2021/07/10 04:23:37;;;;;;;22.50;17.50;;;15.30;99.90;;;;;;5012738;28;20704;-66
2021/07/10 04:26:03;;;;;;;18.13;16.23;;;15.50;99.90;;;;;;5029110;28;20184;-66
2021/07/10 04:28:28;;;;;;;19.90;16.57;;;15.70;99.90;;;;;;5029960;28;20179;-66
2021/07/10 04:30:54;;;;;;;20.17;18.07;;;16.00;99.90;;;;;;5012641;28;20172;-66
2021/07/10 04:33:20;;;;;;;21.10;18.23;;;16.30;99.90;;;;;;5012666;28;20568;-66
2021/07/10 04:35:45;;;;;;;20.73;17.63;;;16.40;99.90;;;;;;5031766;28;20187;-66
2021/07/10 04:38:11;;;;;;;18.40;16.50;;;16.70;99.90;;;;;;5032420;28;20536;-67
2021/07/10 04:40:36;;;;;;;19.17;16.23;;;17.00;99.90;;;;;;5014599;28;20258;-66
2021/07/10 04:43:03;;;;;;;17.80;16.07;;;17.20;99.90;;;;;;5012383;28;20204;-66
2021/07/10 04:45:28;;;;;;;16.23;14.73;;;17.30;99.90;;;;;;5039447;22;20246;-66
2021/07/10 04:47:54;;;;;;;14.80;13.43;;;17.50;99.90;;;;;;5012113;28;20176;-66
2021/07/10 04:50:22;;;;;;;14.80;13.30;;;17.60;99.90;;;;;;5012046;28;20570;-67
2021/07/10 04:52:48;;;;;;;14.07;12.73;;;17.90;99.90;;;;;;5012404;28;20168;-66
2021/07/10 04:55:14;;;;;;;12.67;11.63;;;18.10;99.90;;;;;;5011896;28;20208;-66
2021/07/10 04:57:41;;;;;;;12.40;11.30;;;18.30;99.90;;;;;;5011346;28;20172;-67
2021/07/10 05:00:08;;;;;;;11.37;10.33;;;18.50;99.90;;;;;;5012057;28;20560;-66
2021/07/10 05:02:34;;;;;;;11.10;10.13;;;18.50;99.90;;;;;;5012160;28;20203;-66
2021/07/10 05:05:00;;;;;;;11.73;10.73;;;18.40;99.90;;;;;;5011831;28;20203;-66
2021/07/10 05:07:25;;;;;;;11.57;10.53;;;18.30;99.90;;;;;;5011058;28;20164;-66
2021/07/10 05:09:51;;;;;;;15.03;11.60;;;18.10;99.90;;;;;;5011949;28;20207;-66
2021/07/10 05:12:20;;;;;;;12.27;10.20;;;18.00;99.90;;;;;;5012136;28;20630;-66
2021/07/10 05:14:49;;;;;;;12.23;11.00;;;18.00;99.90;;;;;;5011983;28;20276;-67
2021/07/10 05:17:14;;;;;;;10.73;9.93;;;18.10;99.90;;;;;;5011723;28;20531;-66
2021/07/10 05:19:40;;;;;;;12.17;10.33;;;18.10;99.90;;;;;;5011764;28;20172;-66
2021/07/10 05:22:06;;;;;;;12.63;11.53;;;18.20;99.90;;;;;;5011884;28;20664;-67
2021/07/10 05:24:31;;;;;;;11.10;10.13;;;18.30;99.90;;;;;;5011683;28;20200;-66
2021/07/10 05:26:57;;;;;;;11.63;10.63;;;18.40;99.90;;;;;;5011670;28;20172;-66
2021/07/10 05:29:22;;;;;;;11.17;10.17;;;18.40;99.90;;;;;;5011709;28;20263;-66
2021/07/10 05:31:48;;;;;;;11.40;10.50;;;18.30;99.90;;;;;;5011866;28;20251;-66
2021/07/10 05:34:14;;;;;;;10.90;10.00;;;18.20;99.90;;;;;;5011935;28;20221;-66
2021/07/10 05:36:39;;;;;;;12.03;10.93;;;18.20;99.90;;;;;;5011521;28;20212;-67
2021/07/10 05:39:05;;;;;;;12.47;11.10;;;18.30;99.90;;;;;;5008078;28;20188;-66
2021/07/10 05:41:32;;;;;;;11.80;10.73;;;18.50;99.90;;;;;;5015488;28;20639;-66
2021/07/10 05:43:57;;;;;;;13.00;11.77;;;18.70;99.90;;;;;;5015352;28;20273;-67
2021/07/10 05:46:23;;;;;;;12.00;10.80;;;18.80;99.90;;;;;;5015374;28;20864;-67
2021/07/10 05:48:49;;;;;;;11.80;10.70;;;18.90;99.90;;;;;;5015782;28;20667;-67
2021/07/10 05:51:14;;;;;;;11.67;10.60;;;19.10;99.90;;;;;;5015347;28;20176;-67
2021/07/10 05:53:40;;;;;;;12.73;11.73;;;19.30;99.90;;;;;;5013599;28;20179;-66
2021/07/10 05:56:06;;;;;;;12.10;11.03;;;19.40;99.90;;;;;;5014545;28;20184;-67
2021/07/10 05:58:31;;;;;;;12.13;11.20;;;19.40;99.90;;;;;;5015142;28;20476;-66
2021/07/10 06:00:57;;;;;;;11.73;10.83;;;19.60;99.90;;;;;;5014684;28;20179;-67
2021/07/10 06:03:22;;;;;;;11.23;10.33;;;19.80;99.90;;;;;;5015051;28;20204;-66
2021/07/10 06:05:48;;;;;;;12.83;11.83;;;20.00;99.90;;;;;;5013299;28;20192;-66
2021/07/10 06:08:14;;;;;;;11.70;10.80;;;20.00;99.90;;;;;;4994727;28;20198;-66
2021/07/10 06:10:40;;;;;;;12.13;11.20;;;20.20;99.90;;;;;;4995614;28;20711;-66
2021/07/10 06:13:06;;;;;;;11.43;10.43;;;20.20;99.90;;;;;;5013629;28;20183;-66
2021/07/10 06:15:31;;;;;;;11.23;10.33;;;20.30;99.90;;;;;;5015155;28;20191;-66
2021/07/10 06:17:57;;;;;;;12.63;11.60;;;20.40;99.90;;;;;;5014337;28;20203;-65
2021/07/10 06:20:23;;;;;;;11.57;10.77;;;20.50;99.90;;;;;;5014455;28;20614;-66
2021/07/10 06:22:51;;;;;;;11.03;10.17;;;20.60;99.90;;;;;;5014867;28;20291;-66
2021/07/10 06:25:18;;;;;;;11.80;10.60;;;20.70;99.90;;;;;;5014834;28;20600;-66
2021/07/10 06:27:46;;;;;;;10.57;9.83;;;20.90;99.90;;;;;;5014422;28;20180;-66
2021/07/10 06:30:13;;;;;;;12.87;11.90;;;20.90;99.90;;;;;;5015020;28;20187;-66
2021/07/10 06:32:39;;;;;;;11.33;10.50;;;20.90;99.90;;;;;;5014750;28;20187;-66
2021/07/10 06:35:06;;;;;;;11.57;10.67;;;20.90;99.90;;;;;;5014604;28;20204;-66
2021/07/10 06:37:32;;;;;;;11.27;10.37;;;20.90;99.90;;;;;;5014397;28;20661;-66
2021/07/10 06:39:57;;;;;;;10.57;9.47;;;20.90;99.90;;;;;;5014766;28;20180;-66
2021/07/10 06:42:23;;;;;;;12.47;11.47;;;20.80;99.90;;;;;;5014311;28;20282;-66
2021/07/10 06:44:49;;;;;;;10.70;9.80;;;20.80;99.90;;;;;;5014660;28;20576;-66
2021/07/10 06:47:15;;;;;;;11.50;10.40;;;20.80;99.90;;;;;;5014020;28;20230;-66
2021/07/10 06:49:40;;;;;;;10.47;9.77;;;20.90;99.90;;;;;;5014302;28;20180;-66
2021/07/10 06:52:07;;;;;;;12.00;11.10;;;20.90;99.90;;;;;;5013092;28;20251;-66
2021/07/10 06:54:33;;;;;;;11.63;10.70;;;21.00;99.90;;;;;;5013840;28;20200;-66
2021/07/10 06:56:59;;;;;;;11.13;9.87;;;21.00;99.90;;;;;;5013775;28;20191;-66
2021/07/10 06:59:24;;;;;;;10.52;9.60;;;21.10;99.90;;;;;;5013910;28;20247;-66
2021/07/10 07:01:51;;;;;;;10.47;9.57;;;21.10;99.90;;;;;;5013320;28;20511;-64
2021/07/10 07:04:19;;;;;;;10.23;9.37;;;21.20;99.90;;;;;;5013373;28;20219;-66
2021/07/10 07:06:46;;;;;;;10.00;9.20;;;21.30;99.90;;;;;;5013805;28;20577;-65
2021/07/10 07:09:12;;;;;;;10.27;9.57;;;21.50;99.90;;;;;;5013751;28;20180;-66
2021/07/10 07:11:38;;;;;;;9.82;9.02;;;21.70;99.90;;;;;;5013817;28;20642;-65
2021/07/10 07:14:03;;;;;;;10.70;9.75;;;21.90;99.90;;;;;;5013668;28;20208;-66
2021/07/10 07:16:29;;;;;;;10.43;9.38;;;22.10;99.90;;;;;;5013760;28;20180;-66
2021/07/10 07:18:55;;;;;;;9.40;8.70;;;22.30;99.90;;;;;;5013662;28;20311;-66
2021/07/10 07:21:21;;;;;;;9.38;8.63;;;22.40;99.90;;;;;;5013876;28;20187;-65
2021/07/10 07:23:46;;;;;;;9.63;8.05;;;22.60;99.90;;;;;;5013405;28;20215;-66
2021/07/10 07:26:12;;;;;;;9.77;8.98;;;23.00;99.90;;;;;;5012047;28;20210;-66
2021/07/10 07:28:38;;;;;;;11.25;9.30;;;23.30;99.90;;;;;;5013505;28;20199;-66
2021/07/10 07:31:04;;;;;;;9.32;8.52;;;23.70;99.90;;;;;;5013549;28;20179;-66
2021/07/10 07:33:30;;;;;;;8.80;8.10;;;24.00;99.90;;;;;;5008699;28;20260;-66
2021/07/10 07:35:56;;;;;;;8.45;7.65;;;24.50;99.90;;;;;;5013220;28;20302;-66
2021/07/10 07:38:22;;;;;;;9.70;9.00;;;24.90;99.90;;;;;;5013374;28;21007;-66
2021/07/10 07:40:48;;;;;;;10.20;9.38;;;25.20;99.90;;;;;;5012387;28;20188;-66
2021/07/10 07:43:13;;;;;;;9.90;8.90;;;25.20;99.90;;;;;;5013058;28;20207;-66
2021/07/10 07:45:39;;;;;;;10.52;9.32;;;25.10;99.90;;;;;;5012793;28;20207;-65
2021/07/10 07:48:05;;;;;;;10.27;9.30;;;25.20;99.90;;;;;;5013210;28;20191;-66
2021/07/10 07:50:31;;;;;;;9.65;8.85;;;25.30;99.90;;;;;;5013124;28;20588;-66
2021/07/10 07:52:57;;;;;;;10.52;9.60;;;25.40;99.90;;;;;;5013284;28;20226;-66
2021/07/10 07:55:23;;;;;;;9.30;8.50;;;25.40;99.90;;;;;;5012737;28;20227;-66
2021/07/10 07:57:48;;;;;;;12.15;9.65;;;25.50;99.90;;;;;;5012896;28;20195;-67
2021/07/10 08:00:19;;;;;;;10.40;9.40;;;25.70;99.90;;;;;;5012643;28;20191;-66
2021/07/10 08:02:49;;;;;;;10.50;9.50;;;26.00;99.90;;;;;;5011955;28;20685;-67
2021/07/10 08:05:15;;;;;;;10.98;9.98;;;26.30;99.90;;;;;;5012401;28;20191;-67
2021/07/10 08:07:42;;;;;;;11.07;9.93;;;26.40;99.90;;;;;;5011046;28;20187;-66
2021/07/10 08:10:12;;;;;;;11.23;10.15;;;26.10;99.90;;;;;;5012015;28;20731;-67
2021/07/10 08:12:38;;;;;;;10.13;9.13;;;26.00;99.90;;;;;;5011875;28;20187;-66
2021/07/10 08:15:08;;;;;;;11.13;10.13;;;25.90;99.90;;;;;;5011189;28;20192;-66
2021/07/10 08:17:33;;;;;;;11.07;10.07;;;25.90;99.90;;;;;;5011236;28;20266;-67
2021/07/10 08:19:59;;;;;;;10.55;9.55;;;26.00;99.90;;;;;;5012497;28;20689;-66
2021/07/10 08:22:26;;;;;;;9.93;9.10;;;26.00;99.90;;;;;;5010852;28;20204;-67
2021/07/10 08:24:52;;;;;;;11.82;10.73;;;25.80;99.90;;;;;;5012683;28;20192;-67
2021/07/10 08:27:17;;;;;;;11.10;10.00;;;25.90;99.90;;;;;;5012131;28;20179;-67
2021/07/10 08:29:43;;;;;;;11.07;9.98;;;26.20;99.90;;;;;;5013017;28;20169;-66
2021/07/10 08:32:09;;;;;;;11.48;10.48;;;26.30;99.90;;;;;;5012438;28;20172;-67
2021/07/10 08:34:35;;;;;;;11.20;10.15;;;26.40;99.90;;;;;;5012445;28;20204;-66
2021/07/10 08:37:02;;;;;;;11.23;10.02;;;26.60;99.90;;;;;;5012203;28;20173;-66
2021/07/10 08:39:28;;;;;;;10.55;9.48;;;26.80;99.90;;;;;;5011992;28;20616;-66
2021/07/10 08:41:54;;;;;;;11.15;10.07;;;26.90;99.90;;;;;;5009040;28;20681;-67
2021/07/10 08:44:20;;;;;;;12.23;11.05;;;27.10;99.90;;;;;;5010878;28;20303;-67
2021/07/10 08:46:46;;;;;;;11.25;10.13;;;27.30;99.90;;;;;;5012002;28;20247;-67
2021/07/10 08:49:14;;;;;;;13.32;12.10;;;27.40;99.90;;;;;;5011896;28;20709;-66
2021/07/10 08:51:43;;;;;;;11.30;10.30;;;27.60;99.90;;;;;;5010984;28;20184;-67
2021/07/10 08:54:09;;;;;;;13.15;11.65;;;28.00;99.90;;;;;;5011644;28;20192;-67
2021/07/10 08:56:35;;;;;;;12.07;11.00;;;28.20;99.90;;;;;;5011230;28;20183;-67
2021/07/10 08:59:00;;;;;;;11.77;9.75;;;28.20;99.90;;;;;;5011786;28;20588;-67
2021/07/10 09:01:26;;;;;;;10.85;9.93;;;28.40;99.90;;;;;;5011699;28;20183;-67
2021/07/10 09:03:52;;;;;;;11.20;10.20;;;28.60;99.90;;;;;;5010974;28;20270;-67
2021/07/10 09:06:18;;;;;;;9.95;9.15;;;28.60;99.90;;;;;;5010917;28;20176;-67
2021/07/10 09:08:53;;;;;;;9.73;8.85;;;28.70;99.90;;;;;;5010753;28;20175;-66
2021/07/10 09:11:19;;;;;;;9.13;8.18;;;28.80;99.90;;;;;;5011567;28;20230;-66
2021/07/10 09:13:48;;;;;;;9.68;8.77;;;28.90;99.90;;;;;;5010721;28;20191;-67
2021/07/10 09:16:16;;;;;;;9.88;8.98;;;29.10;99.90;;;;;;5011217;28;20235;-67
2021/07/10 09:18:50;;;;;;;10.48;9.40;;;29.00;99.90;;;;;;5011899;28;20168;-67
2021/07/10 09:21:44;;;;;;;10.02;9.13;;;28.90;99.90;;;;;;5011157;28;20183;-67
2021/07/10 09:24:14;;;;;;;9.52;8.55;;;29.00;99.90;;;;;;5011227;28;20242;-67
2021/07/10 09:26:52;;;;;;;9.80;8.90;;;28.90;99.90;;;;;;5011521;28;20523;-66
2021/07/10 09:29:21;;;;;;;9.75;8.85;;;28.80;99.90;;;;;;5011218;28;20254;-66
2021/07/10 09:32:02;;;;;;;9.88;8.98;;;28.80;99.90;;;;;;5011605;28;20688;-66
2021/07/10 09:34:38;;;;;;;11.85;9.65;;;28.90;99.90;;;;;;5011485;28;20212;-67
2021/07/10 09:37:06;;;;;;;9.60;8.57;;;29.00;99.90;;;;;;5011260;28;20167;-67
2021/07/10 09:39:42;;;;;;;9.73;8.93;;;29.00;99.90;;;;;;5010057;28;20190;-67
2021/07/10 09:42:08;;;;;;;9.95;8.88;;;29.00;99.90;;;;;;5010817;28;20179;-67
2021/07/10 09:44:51;;;;;;;10.50;9.43;;;28.90;99.90;;;;;;5010684;28;20212;-67
2021/07/10 09:47:26;;;;;;;10.35;9.45;;;28.80;99.90;;;;;;5011102;28;20172;-66
2021/07/10 09:49:52;;;;;;;8.63;7.82;;;28.70;99.90;;;;;;5011404;28;20186;-67
2021/07/10 09:52:19;;;;;;;9.85;8.85;;;28.70;99.90;;;;;;5011457;28;20168;-66
2021/07/10 09:54:50;;;;;;;7.88;7.13;;;28.60;99.90;;;;;;5011265;28;20196;-67
2021/07/10 09:57:16;;;;;;;8.43;7.80;;;28.60;99.90;;;;;;5010644;28;20238;-67
2021/07/10 09:59:45;;;;;;;7.70;7.10;;;28.90;99.90;;;;;;5011190;28;20180;-67
2021/07/10 10:02:38;;;;;;;8.50;7.72;;;29.10;99.90;;;;;;5011248;28;20220;-67
2021/07/10 10:05:07;;;;;;;8.63;7.93;;;29.10;99.90;;;;;;5002580;28;20208;-67
2021/07/10 10:07:45;;;;;;;9.27;8.48;;;28.90;99.90;;;;;;5011183;28;20705;-66
2021/07/10 10:10:44;;;;;;;8.82;8.13;;;28.70;99.90;;;;;;5011049;28;20234;-67
2021/07/10 10:13:18;;;;;;;8.95;7.78;;;28.70;99.90;;;;;;5011123;28;20222;-66
2021/07/10 10:15:48;;;;;;;9.02;8.23;;;28.70;99.90;;;;;;5010872;28;20209;-66
2021/07/10 10:18:16;;;;;;;7.97;7.32;;;28.70;99.90;;;;;;5011014;28;20169;-66
2021/07/10 10:20:42;;;;;;;8.45;7.75;;;28.70;99.90;;;;;;5011000;28;20215;-67
2021/07/10 10:23:10;;;;;;;8.68;7.90;;;28.90;99.90;;;;;;5011146;28;20339;-66
2021/07/10 10:25:36;;;;;;;8.90;8.00;;;28.80;99.90;;;;;;5011617;28;20200;-67
2021/07/10 10:28:18;;;;;;;8.27;7.68;;;28.70;99.90;;;;;;5014576;28;20255;-66
2021/07/10 10:30:45;;;;;;;8.70;7.90;;;28.20;99.90;;;;;;5014791;28;20588;-67
2021/07/10 10:33:11;;;;;;;9.05;8.25;;;28.00;99.90;;;;;;5014746;28;20171;-67
2021/07/10 10:35:37;;;;;;;7.80;7.13;;;28.20;99.90;;;;;;5014213;28;20729;-67
2021/07/10 10:38:03;;;;;;;7.20;6.68;;;28.60;99.90;;;;;;5014510;28;20255;-67
2021/07/10 10:40:29;;;;;;;8.13;7.30;;;28.70;99.90;;;;;;5014341;28;20263;-67
2021/07/10 10:42:57;;;;;;;7.45;6.85;;;29.20;99.90;;;;;;5014574;28;20192;-67
2021/07/10 10:45:33;;;;;;;7.90;7.20;;;29.60;99.90;;;;;;5050375;22;20231;-67
2021/07/10 10:47:59;;;;;;;9.63;7.40;;;29.80;99.90;;;;;;5033765;28;20262;-65
2021/07/10 10:50:35;;;;;;;8.32;7.53;;;29.90;99.90;;;;;;5034097;28;20353;-65
2021/07/10 10:53:03;;;;;;;10.50;9.80;;;29.80;99.90;;;;;;5034000;28;20167;-65
2021/07/10 10:55:28;;;;;;;7.80;7.07;;;29.40;99.90;;;;;;5032383;28;20199;-67
2021/07/10 10:58:13;;;;;;;8.05;7.40;;;29.70;99.90;;;;;;5033652;28;20176;-65
2021/07/10 11:00:41;;;;;;;8.57;7.88;;;29.90;99.90;;;;;;5024991;28;20184;-65
2021/07/10 11:03:13;;;;;;;9.43;7.60;;;30.10;99.90;;;;;;5013786;28;20200;-65
2021/07/10 11:05:44;;;;;;;6.80;6.25;;;30.20;99.90;;;;;;5021709;28;20199;-65
2021/07/10 11:08:18;;;;;;;8.38;7.68;;;30.10;99.90;;;;;;5033763;28;20659;-65
2021/07/10 11:10:46;;;;;;;8.30;7.60;;;30.00;99.90;;;;;;5030967;28;20181;-65
2021/07/10 11:13:30;;;;;;;8.15;7.55;;;29.80;99.90;;;;;;5033744;28;20202;-65
2021/07/10 11:16:05;;;;;;;7.32;6.72;;;29.10;99.90;;;;;;5023723;28;20207;-65
2021/07/10 11:18:54;;;;;;;7.68;7.13;;;28.50;99.90;;;;;;5013796;28;20198;-67
2021/07/10 11:21:37;;;;;;;7.82;7.18;;;28.30;99.90;;;;;;5025506;28;20191;-65
2021/07/10 11:26:56;;;;;;;8.57;7.90;;;28.40;99.90;;;;;;5021894;28;20186;-65
2021/07/10 11:29:31;;;;;;;8.13;7.60;;;28.80;99.90;;;;;;5032153;28;20179;-65
2021/07/10 11:32:26;;;;;;;6.93;6.40;;;29.10;99.90;;;;;;5016933;28;20270;-65
2021/07/10 11:34:53;;;;;;;7.88;7.18;;;29.10;99.90;;;;;;5012441;28;20234;-65
2021/07/10 11:37:20;;;;;;;6.55;6.05;;;29.20;99.90;;;;;;5025693;28;20179;-65
2021/07/10 11:39:46;;;;;;;6.70;6.20;;;29.60;99.90;;;;;;5022110;28;20188;-65
2021/07/10 11:42:18;;;;;;;6.70;6.20;;;30.10;99.90;;;;;;5013236;28;20751;-65
2021/07/10 11:44:45;;;;;;;6.22;5.60;;;30.60;99.90;;;;;;5030045;28;20817;-65
2021/07/10 11:47:10;;;;;;;6.47;5.97;;;31.00;99.90;;;;;;5032715;28;20527;-65
2021/07/10 11:49:36;;;;;;;6.95;6.32;;;31.40;99.90;;;;;;5014830;28;20195;-65
2021/07/10 11:52:20;;;;;;;6.53;6.03;;;31.60;99.90;;;;;;5013087;28;20172;-65
2021/07/10 11:54:50;;;;;;;7.38;6.78;;;31.80;99.90;;;;;;5013545;28;20231;-65
2021/07/10 11:57:16;;;;;;;6.63;6.00;;;31.90;99.90;;;;;;5012780;28;20183;-66
2021/07/10 11:59:42;;;;;;;6.10;5.50;;;31.90;99.90;;;;;;5031078;28;20734;-65
2021/07/10 12:02:23;;;;;;;6.90;6.28;;;31.60;99.90;;;;;;5032745;28;20180;-65
2021/07/10 12:05:02;;;;;;;7.20;6.72;;;31.40;99.90;;;;;;5013994;28;20196;-65
2021/07/10 12:07:29;;;;;;;5.75;5.35;;;31.40;99.90;;;;;;5017747;28;20183;-65
2021/07/10 12:09:55;;;;;;;5.88;5.55;;;31.50;99.90;;;;;;5032647;28;20245;-65
2021/07/10 12:12:21;;;;;;;6.13;5.72;;;31.50;99.90;;;;;;5028974;28;20638;-65
2021/07/10 12:14:55;;;;;;;5.55;5.07;;;31.40;99.90;;;;;;5012749;28;20200;-65
2021/07/10 12:17:22;;;;;;;6.43;5.93;;;31.30;99.90;;;;;;5013597;28;20650;-65
2021/07/10 12:19:50;;;;;;;5.88;5.47;;;31.10;99.90;;;;;;5012756;28;20172;-65
2021/07/10 12:22:16;;;;;;;6.03;5.57;;;31.00;99.90;;;;;;5014474;28;20168;-65
2021/07/10 12:24:42;;;;;;;5.68;5.25;;;30.80;99.90;;;;;;5032487;28;20283;-66
2021/07/10 12:27:13;;;;;;;5.85;5.40;;;30.30;99.90;;;;;;5031388;28;20179;-65
2021/07/10 12:29:49;;;;;;;6.05;5.65;;;29.90;99.90;;;;;;5012776;28;20176;-65
2021/07/10 12:32:15;;;;;;;6.47;6.07;;;29.40;99.90;;;;;;5013342;28;20563;-65
2021/07/10 12:34:49;;;;;;;6.47;5.97;;;29.00;99.90;;;;;;5032222;28;20194;-65
2021/07/10 12:37:30;;;;;;;6.07;5.68;;;28.80;99.90;;;;;;5027192;28;20672;-65